sensor_id;sensor_type;location;lat;lon;timestamp;pressure;altitude;pressure_sealevel;temperature;humidity
1926;BME280;964;42.606;23.588;2023-11-19T00:01:57;94414.78;;;12.55;41.14
1926;BME280;964;42.606;23.588;2023-11-19T00:04:24;94419.63;;;12.46;41.21
1926;BME280;964;42.606;23.588;2023-11-19T00:06:51;94417.72;;;12.83;41.38
1926;BME280;964;42.606;23.588;2023-11-19T00:09:18;94421.69;;;12.26;40.95
1926;BME280;964;42.606;23.588;2023-11-19T00:11:44;94424.06;;;12.35;42.49
1926;BME280;964;42.606;23.588;2023-11-19T00:14:13;94421.22;;;12.54;42.19
1926;BME280;964;42.606;23.588;2023-11-19T00:16:40;94420.44;;;12.16;41.70
1926;BME280;964;42.606;23.588;2023-11-19T00:19:07;94429.69;;;12.63;41.07
1926;BME280;964;42.606;23.588;2023-11-19T00:21:34;94425.06;;;11.93;42.46
1926;BME280;964;42.606;23.588;2023-11-19T00:24:02;94437.03;;;12.76;41.54
1926;BME280;964;42.606;23.588;2023-11-19T00:26:29;94433.41;;;12.58;41.59
1926;BME280;964;42.606;23.588;2023-11-19T00:28:56;94423.00;;;12.09;41.57
1926;BME280;964;42.606;23.588;2023-11-19T00:31:25;94429.56;;;12.19;41.74
1926;BME280;964;42.606;23.588;2023-11-19T00:33:53;94430.56;;;12.07;41.94
1926;BME280;964;42.606;23.588;2023-11-19T00:36:20;94443.84;;;12.41;41.73
1926;BME280;964;42.606;23.588;2023-11-19T00:38:49;94439.44;;;12.52;41.65
1926;BME280;964;42.606;23.588;2023-11-19T00:41:16;94439.66;;;12.40;41.20
1926;BME280;964;42.606;23.588;2023-11-19T00:43:43;94436.81;;;12.22;41.79
1926;BME280;964;42.606;23.588;2023-11-19T00:46:09;94439.44;;;12.52;40.52
1926;BME280;964;42.606;23.588;2023-11-19T00:48:39;94436.56;;;12.67;40.47
1926;BME280;964;42.606;23.588;2023-11-19T00:51:06;94442.97;;;12.29;41.77
1926;BME280;964;42.606;23.588;2023-11-19T00:53:33;94443.06;;;12.37;41.29
1926;BME280;964;42.606;23.588;2023-11-19T00:56:00;94440.66;;;12.28;41.89
1926;BME280;964;42.606;23.588;2023-11-19T00:58:27;94447.41;;;11.66;42.63
1926;BME280;964;42.606;23.588;2023-11-19T01:00:55;94454.97;;;12.16;42.15
1926;BME280;964;42.606;23.588;2023-11-19T01:03:22;94458.03;;;11.92;42.30
1926;BME280;964;42.606;23.588;2023-11-19T01:05:50;94452.53;;;12.04;42.07
1926;BME280;964;42.606;23.588;2023-11-19T01:08:18;94453.75;;;12.44;41.19
1926;BME280;964;42.606;23.588;2023-11-19T01:10:44;94454.50;;;12.11;42.54
1926;BME280;964;42.606;23.588;2023-11-19T01:13:11;94442.88;;;12.22;41.44
1926;BME280;964;42.606;23.588;2023-11-19T01:15:38;94444.66;;;11.85;42.74
1926;BME280;964;42.606;23.588;2023-11-19T01:18:06;94445.50;;;12.52;41.19
1926;BME280;964;42.606;23.588;2023-11-19T01:20:34;94447.59;;;12.06;41.55
1926;BME280;964;42.606;23.588;2023-11-19T01:23:02;94457.28;;;12.21;42.14
1926;BME280;964;42.606;23.588;2023-11-19T01:25:29;94468.94;;;12.13;42.54
1926;BME280;964;42.606;23.588;2023-11-19T01:27:56;94458.72;;;12.15;41.29
1926;BME280;964;42.606;23.588;2023-11-19T01:30:23;94449.81;;;12.31;41.32
1926;BME280;964;42.606;23.588;2023-11-19T01:32:51;94441.00;;;11.93;42.70
1926;BME280;964;42.606;23.588;2023-11-19T01:35:17;94457.63;;;12.16;41.46
1926;BME280;964;42.606;23.588;2023-11-19T01:37:44;94457.72;;;12.23;42.67
1926;BME280;964;42.606;23.588;2023-11-19T01:40:13;94464.03;;;12.15;42.11
1926;BME280;964;42.606;23.588;2023-11-19T01:42:40;94469.84;;;11.95;42.07
1926;BME280;964;42.606;23.588;2023-11-19T01:45:08;94462.38;;;12.04;42.27
1926;BME280;964;42.606;23.588;2023-11-19T01:47:35;94456.25;;;12.29;41.62
1926;BME280;964;42.606;23.588;2023-11-19T01:50:06;94478.47;;;12.81;41.34
1926;BME280;964;42.606;23.588;2023-11-19T01:52:34;94474.88;;;12.63;40.41
1926;BME280;964;42.606;23.588;2023-11-19T01:55:03;94467.94;;;12.55;40.46
1926;BME280;964;42.606;23.588;2023-11-19T01:57:32;94474.16;;;12.36;41.56
1926;BME280;964;42.606;23.588;2023-11-19T01:59:59;94459.06;;;12.44;41.29
1926;BME280;964;42.606;23.588;2023-11-19T02:02:27;94466.28;;;12.43;41.31
1926;BME280;964;42.606;23.588;2023-11-19T02:04:54;94467.09;;;12.17;41.64
1926;BME280;964;42.606;23.588;2023-11-19T02:07:21;94460.34;;;12.57;40.50
1926;BME280;964;42.606;23.588;2023-11-19T02:09:48;94465.38;;;12.02;40.97
1926;BME280;964;42.606;23.588;2023-11-19T02:12:15;94459.00;;;12.37;40.66
1926;BME280;964;42.606;23.588;2023-11-19T02:14:43;94456.47;;;12.84;40.51
1926;BME280;964;42.606;23.588;2023-11-19T02:17:25;94462.16;;;12.46;40.79
1926;BME280;964;42.606;23.588;2023-11-19T02:19:51;94457.84;;;11.55;42.47
1926;BME280;964;42.606;23.588;2023-11-19T02:22:18;94464.59;;;11.98;40.58
1926;BME280;964;42.606;23.588;2023-11-19T02:24:47;94450.72;;;12.42;40.68
1926;BME280;964;42.606;23.588;2023-11-19T02:27:20;94465.19;;;12.48;39.96
1926;BME280;964;42.606;23.588;2023-11-19T02:29:54;94475.59;;;11.74;41.16
1926;BME280;964;42.606;23.588;2023-11-19T02:32:20;94460.09;;;11.76;40.71
1926;BME280;964;42.606;23.588;2023-11-19T02:34:47;94471.69;;;12.20;40.39
1926;BME280;964;42.606;23.588;2023-11-19T02:37:14;94478.94;;;12.57;39.88
1926;BME280;964;42.606;23.588;2023-11-19T02:39:41;94477.47;;;12.59;39.34
1926;BME280;964;42.606;23.588;2023-11-19T02:42:08;94483.16;;;12.28;39.82
1926;BME280;964;42.606;23.588;2023-11-19T02:44:36;94475.47;;;12.19;40.29
1926;BME280;964;42.606;23.588;2023-11-19T02:47:06;94468.66;;;12.85;40.22
1926;BME280;964;42.606;23.588;2023-11-19T02:49:34;94464.19;;;12.96;38.88
1926;BME280;964;42.606;23.588;2023-11-19T02:52:03;94469.91;;;12.98;39.37
1926;BME280;964;42.606;23.588;2023-11-19T02:54:31;94480.25;;;12.37;39.55
1926;BME280;964;42.606;23.588;2023-11-19T02:57:00;94475.66;;;12.34;40.03
1926;BME280;964;42.606;23.588;2023-11-19T02:59:28;94476.16;;;12.79;38.89
1926;BME280;964;42.606;23.588;2023-11-19T03:02:04;94478.44;;;12.77;39.74
1926;BME280;964;42.606;23.588;2023-11-19T03:04:33;94482.31;;;12.20;40.42
1926;BME280;964;42.606;23.588;2023-11-19T03:07:00;94478.25;;;12.60;38.94
1926;BME280;964;42.606;23.588;2023-11-19T03:09:27;94477.63;;;12.10;40.24
1926;BME280;964;42.606;23.588;2023-11-19T03:11:54;94485.88;;;12.65;39.95
1926;BME280;964;42.606;23.588;2023-11-19T03:14:21;94491.63;;;12.67;39.34
1926;BME280;964;42.606;23.588;2023-11-19T03:16:49;94486.78;;;12.76;38.92
1926;BME280;964;42.606;23.588;2023-11-19T03:19:16;94493.22;;;12.42;40.13
1926;BME280;964;42.606;23.588;2023-11-19T03:21:44;94493.25;;;12.45;39.96
1926;BME280;964;42.606;23.588;2023-11-19T03:24:13;94491.34;;;12.12;40.71
1926;BME280;964;42.606;23.588;2023-11-19T03:26:40;94493.28;;;11.89;41.35
1926;BME280;964;42.606;23.588;2023-11-19T03:29:08;94493.91;;;11.79;41.35
1926;BME280;964;42.606;23.588;2023-11-19T03:31:34;94483.28;;;12.05;40.86
1926;BME280;964;42.606;23.588;2023-11-19T03:34:01;94493.19;;;12.38;40.41
1926;BME280;964;42.606;23.588;2023-11-19T03:36:32;94495.59;;;11.91;41.06
1926;BME280;964;42.606;23.588;2023-11-19T03:39:00;94490.31;;;11.94;40.29
1926;BME280;964;42.606;23.588;2023-11-19T03:41:28;94485.88;;;12.65;39.13
1926;BME280;964;42.606;23.588;2023-11-19T03:43:56;94493.47;;;12.03;40.41
1926;BME280;964;42.606;23.588;2023-11-19T03:46:22;94497.00;;;12.41;40.50
1926;BME280;964;42.606;23.588;2023-11-19T03:48:50;94492.59;;;12.52;39.49
1926;BME280;964;42.606;23.588;2023-11-19T03:51:17;94498.50;;;12.38;39.40
1926;BME280;964;42.606;23.588;2023-11-19T03:53:44;94498.81;;;12.33;40.70
1926;BME280;964;42.606;23.588;2023-11-19T03:56:12;94507.25;;;12.12;40.63
1926;BME280;964;42.606;23.588;2023-11-19T03:58:39;94506.44;;;12.08;41.03
1926;BME280;964;42.606;23.588;2023-11-19T04:01:10;94501.91;;;12.09;40.62
1926;BME280;964;42.606;23.588;2023-11-19T04:03:37;94508.84;;;11.91;41.53
1926;BME280;964;42.606;23.588;2023-11-19T04:06:04;94498.06;;;12.06;41.00
1926;BME280;964;42.606;23.588;2023-11-19T04:08:31;94504.63;;;11.86;41.41
1926;BME280;964;42.606;23.588;2023-11-19T04:10:58;94509.69;;;12.24;40.20
1926;BME280;964;42.606;23.588;2023-11-19T04:13:27;94506.16;;;12.17;40.98
1926;BME280;964;42.606;23.588;2023-11-19T04:15:54;94506.91;;;12.44;39.50
1926;BME280;964;42.606;23.588;2023-11-19T04:18:21;94503.44;;;12.40;39.30
1926;BME280;964;42.606;23.588;2023-11-19T04:20:47;94510.16;;;12.60;39.80
1926;BME280;964;42.606;23.588;2023-11-19T04:23:15;94510.31;;;12.14;40.61
1926;BME280;964;42.606;23.588;2023-11-19T04:25:41;94515.75;;;12.25;40.61
1926;BME280;964;42.606;23.588;2023-11-19T04:28:08;94514.56;;;12.49;39.63
1926;BME280;964;42.606;23.588;2023-11-19T04:30:36;94513.38;;;12.16;41.07
1926;BME280;964;42.606;23.588;2023-11-19T04:33:04;94514.38;;;12.35;40.05
1926;BME280;964;42.606;23.588;2023-11-19T04:35:31;94506.25;;;11.94;40.35
1926;BME280;964;42.606;23.588;2023-11-19T04:37:57;94529.47;;;12.01;41.13
1926;BME280;964;42.606;23.588;2023-11-19T04:40:24;94523.09;;;12.05;41.00
1926;BME280;964;42.606;23.588;2023-11-19T04:42:51;94519.91;;;12.22;40.99
1926;BME280;964;42.606;23.588;2023-11-19T04:45:18;94523.50;;;11.81;41.49
1926;BME280;964;42.606;23.588;2023-11-19T04:47:47;94527.56;;;11.75;40.88
1926;BME280;964;42.606;23.588;2023-11-19T04:50:13;94527.94;;;12.00;40.57
1926;BME280;964;42.606;23.588;2023-11-19T04:52:40;94532.50;;;11.73;41.00
1926;BME280;964;42.606;23.588;2023-11-19T04:55:07;94521.75;;;12.18;41.13
1926;BME280;964;42.606;23.588;2023-11-19T04:57:37;94519.28;;;12.33;40.47
1926;BME280;964;42.606;23.588;2023-11-19T05:00:04;94538.59;;;11.77;40.79
1926;BME280;964;42.606;23.588;2023-11-19T05:02:32;94539.06;;;11.60;40.84
1926;BME280;964;42.606;23.588;2023-11-19T05:05:00;94534.00;;;11.74;41.38
1926;BME280;964;42.606;23.588;2023-11-19T05:07:28;94540.44;;;12.25;41.29
1926;BME280;964;42.606;23.588;2023-11-19T05:09:54;94547.91;;;11.67;41.36
1926;BME280;964;42.606;23.588;2023-11-19T05:12:21;94538.66;;;11.80;40.59
1926;BME280;964;42.606;23.588;2023-11-19T05:14:48;94539.41;;;11.81;41.23
1926;BME280;964;42.606;23.588;2023-11-19T05:17:16;94549.06;;;11.70;41.02
1926;BME280;964;42.606;23.588;2023-11-19T05:19:44;94547.00;;;11.60;41.49
1926;BME280;964;42.606;23.588;2023-11-19T05:22:12;94544.03;;;11.61;41.92
1926;BME280;964;42.606;23.588;2023-11-19T05:24:39;94547.97;;;11.48;42.00
1926;BME280;964;42.606;23.588;2023-11-19T05:27:06;94549.03;;;11.44;41.98
1926;BME280;964;42.606;23.588;2023-11-19T05:29:33;94539.78;;;11.57;41.53
1926;BME280;964;42.606;23.588;2023-11-19T05:31:59;94550.03;;;11.81;40.88
1926;BME280;964;42.606;23.588;2023-11-19T05:34:27;94548.25;;;12.15;40.80
1926;BME280;964;42.606;23.588;2023-11-19T05:36:54;94559.06;;;11.54;41.11
1926;BME280;964;42.606;23.588;2023-11-19T05:39:22;94559.47;;;12.01;39.82
1926;BME280;964;42.606;23.588;2023-11-19T05:41:50;94555.34;;;12.34;39.75
1926;BME280;964;42.606;23.588;2023-11-19T05:44:17;94560.22;;;11.56;40.62
1926;BME280;964;42.606;23.588;2023-11-19T05:46:43;94551.72;;;11.70;41.13
1926;BME280;964;42.606;23.588;2023-11-19T05:49:10;94550.63;;;11.71;40.82
1926;BME280;964;42.606;23.588;2023-11-19T05:51:38;94547.28;;;12.00;40.78
1926;BME280;964;42.606;23.588;2023-11-19T05:54:06;94565.56;;;11.79;40.79
1926;BME280;964;42.606;23.588;2023-11-19T05:56:35;94566.31;;;11.57;41.79
1926;BME280;964;42.606;23.588;2023-11-19T05:59:02;94562.78;;;11.72;40.33
1926;BME280;964;42.606;23.588;2023-11-19T06:01:32;94561.94;;;11.68;40.73
1926;BME280;964;42.606;23.588;2023-11-19T06:03:59;94564.06;;;12.04;40.29
1926;BME280;964;42.606;23.588;2023-11-19T06:06:26;94564.22;;;11.92;41.11
1926;BME280;964;42.606;23.588;2023-11-19T06:08:53;94579.28;;;11.85;40.02
1926;BME280;964;42.606;23.588;2023-11-19T06:11:20;94586.47;;;12.33;39.73
1926;BME280;964;42.606;23.588;2023-11-19T06:13:48;94598.63;;;11.85;40.33
1926;BME280;964;42.606;23.588;2023-11-19T06:16:16;94596.72;;;11.63;40.79
1926;BME280;964;42.606;23.588;2023-11-19T06:18:43;94594.09;;;12.08;40.57
1926;BME280;964;42.606;23.588;2023-11-19T06:21:10;94593.38;;;12.11;39.86
1926;BME280;964;42.606;23.588;2023-11-19T06:23:37;94582.94;;;11.99;39.91
1926;BME280;964;42.606;23.588;2023-11-19T06:26:04;94580.09;;;11.66;40.90
1926;BME280;964;42.606;23.588;2023-11-19T06:28:31;94568.94;;;11.76;40.96
1926;BME280;964;42.606;23.588;2023-11-19T06:30:59;94567.50;;;11.82;40.46
1926;BME280;964;42.606;23.588;2023-11-19T06:33:26;94579.84;;;11.71;41.29
1926;BME280;964;42.606;23.588;2023-11-19T06:35:56;94588.38;;;11.61;40.52
1926;BME280;964;42.606;23.588;2023-11-19T06:38:23;94584.28;;;11.67;41.40
1926;BME280;964;42.606;23.588;2023-11-19T06:40:50;94578.75;;;11.98;41.26
1926;BME280;964;42.606;23.588;2023-11-19T06:43:24;94580.81;;;11.63;41.47
1926;BME280;964;42.606;23.588;2023-11-19T06:45:51;94585.59;;;11.99;40.82
1926;BME280;964;42.606;23.588;2023-11-19T06:48:20;94587.34;;;12.41;40.62
1926;BME280;964;42.606;23.588;2023-11-19T06:50:46;94589.91;;;12.34;40.37
1926;BME280;964;42.606;23.588;2023-11-19T06:53:13;94597.25;;;11.91;41.23
1926;BME280;964;42.606;23.588;2023-11-19T06:55:41;94592.88;;;12.06;41.09
1926;BME280;964;42.606;23.588;2023-11-19T06:58:07;94604.44;;;12.17;40.03
1926;BME280;964;42.606;23.588;2023-11-19T07:00:34;94614.19;;;11.64;40.92
1926;BME280;964;42.606;23.588;2023-11-19T07:03:01;94611.84;;;12.04;40.41
1926;BME280;964;42.606;23.588;2023-11-19T07:05:29;94615.50;;;11.96;40.78
1926;BME280;964;42.606;23.588;2023-11-19T07:07:56;94614.69;;;11.92;40.18
1926;BME280;964;42.606;23.588;2023-11-19T07:10:23;94629.94;;;12.21;40.25
1926;BME280;964;42.606;23.588;2023-11-19T07:12:50;94645.16;;;12.51;39.62
1926;BME280;964;42.606;23.588;2023-11-19T07:15:17;94635.50;;;12.13;40.52
1926;BME280;964;42.606;23.588;2023-11-19T07:17:44;94647.47;;;12.03;40.58
1926;BME280;964;42.606;23.588;2023-11-19T07:20:11;94647.25;;;11.89;41.03
1926;BME280;964;42.606;23.588;2023-11-19T07:22:43;94660.09;;;11.45;40.99
1926;BME280;964;42.606;23.588;2023-11-19T07:25:12;94652.63;;;12.15;39.71
1926;BME280;964;42.606;23.588;2023-11-19T07:27:39;94643.69;;;12.53;40.09
1926;BME280;964;42.606;23.588;2023-11-19T07:30:06;94652.00;;;12.25;39.95
1926;BME280;964;42.606;23.588;2023-11-19T07:32:33;94649.38;;;11.80;39.73
1926;BME280;964;42.606;23.588;2023-11-19T07:35:00;94648.72;;;11.45;41.15
1926;BME280;964;42.606;23.588;2023-11-19T07:37:27;94658.06;;;11.58;40.53
1926;BME280;964;42.606;23.588;2023-11-19T07:39:55;94664.47;;;11.76;40.96
1926;BME280;964;42.606;23.588;2023-11-19T07:42:22;94675.22;;;11.64;39.98
1926;BME280;964;42.606;23.588;2023-11-19T07:44:49;94663.19;;;11.89;40.36
1926;BME280;964;42.606;23.588;2023-11-19T07:47:16;94668.84;;;11.88;40.25
1926;BME280;964;42.606;23.588;2023-11-19T07:49:43;94666.13;;;11.84;40.21
1926;BME280;964;42.606;23.588;2023-11-19T07:52:10;94680.41;;;11.76;40.80
1926;BME280;964;42.606;23.588;2023-11-19T07:54:37;94661.19;;;12.05;39.71
1926;BME280;964;42.606;23.588;2023-11-19T07:57:05;94664.00;;;11.93;39.74
1926;BME280;964;42.606;23.588;2023-11-19T07:59:32;94669.91;;;12.55;38.83
1926;BME280;964;42.606;23.588;2023-11-19T08:01:58;94678.59;;;12.52;39.89
1926;BME280;964;42.606;23.588;2023-11-19T08:04:25;94662.81;;;12.13;39.11
1926;BME280;964;42.606;23.588;2023-11-19T08:06:52;94661.41;;;11.74;39.71
1926;BME280;964;42.606;23.588;2023-11-19T08:09:18;94675.41;;;11.94;40.02
1926;BME280;964;42.606;23.588;2023-11-19T08:11:45;94682.44;;;12.05;39.29
1926;BME280;964;42.606;23.588;2023-11-19T08:14:13;94675.81;;;12.18;39.92
1926;BME280;964;42.606;23.588;2023-11-19T08:16:40;94673.47;;;12.40;39.65
1926;BME280;964;42.606;23.588;2023-11-19T08:19:07;94681.31;;;11.84;39.60
1926;BME280;964;42.606;23.588;2023-11-19T08:21:34;94679.81;;;12.32;38.65
1926;BME280;964;42.606;23.588;2023-11-19T08:24:01;94675.03;;;11.95;39.72
1926;BME280;964;42.606;23.588;2023-11-19T08:26:29;94677.75;;;11.57;39.87
1926;BME280;964;42.606;23.588;2023-11-19T08:28:55;94673.84;;;11.51;40.17
1926;BME280;964;42.606;23.588;2023-11-19T08:31:24;94678.56;;;12.03;38.97
1926;BME280;964;42.606;23.588;2023-11-19T08:33:51;94675.03;;;12.41;38.56
1926;BME280;964;42.606;23.588;2023-11-19T08:36:18;94674.00;;;12.49;39.20
1926;BME280;964;42.606;23.588;2023-11-19T08:38:45;94684.13;;;12.66;37.64
1926;BME280;964;42.606;23.588;2023-11-19T08:41:12;94674.91;;;12.86;38.28
1926;BME280;964;42.606;23.588;2023-11-19T08:43:38;94685.84;;;13.07;38.22
1926;BME280;964;42.606;23.588;2023-11-19T08:46:09;94701.16;;;12.88;38.79
1926;BME280;964;42.606;23.588;2023-11-19T08:48:38;94705.38;;;11.94;38.50
1926;BME280;964;42.606;23.588;2023-11-19T08:51:05;94703.41;;;12.37;39.00
1926;BME280;964;42.606;23.588;2023-11-19T08:53:32;94700.38;;;12.35;39.37
1926;BME280;964;42.606;23.588;2023-11-19T08:55:59;94695.03;;;11.89;39.85
1926;BME280;964;42.606;23.588;2023-11-19T08:58:25;94689.41;;;12.40;39.35
1926;BME280;964;42.606;23.588;2023-11-19T09:00:52;94686.66;;;12.33;38.65
1926;BME280;964;42.606;23.588;2023-11-19T09:03:19;94683.72;;;12.38;38.56
1926;BME280;964;42.606;23.588;2023-11-19T09:05:48;94693.00;;;12.51;38.94
1926;BME280;964;42.606;23.588;2023-11-19T09:08:15;94679.91;;;12.39;38.84
1926;BME280;964;42.606;23.588;2023-11-19T09:10:41;94681.13;;;12.18;38.88
1926;BME280;964;42.606;23.588;2023-11-19T09:13:08;94677.69;;;12.18;39.03
1926;BME280;964;42.606;23.588;2023-11-19T09:15:35;94670.50;;;12.67;37.80
1926;BME280;964;42.606;23.588;2023-11-19T09:18:01;94673.50;;;12.66;38.59
1926;BME280;964;42.606;23.588;2023-11-19T09:20:30;94662.06;;;13.18;38.39
1926;BME280;964;42.606;23.588;2023-11-19T09:23:04;94653.69;;;13.19;36.94
1926;BME280;964;42.606;23.588;2023-11-19T09:25:31;94669.09;;;12.77;37.91
1926;BME280;964;42.606;23.588;2023-11-19T09:27:58;94680.94;;;13.09;38.02
1926;BME280;964;42.606;23.588;2023-11-19T09:30:25;94681.63;;;13.06;37.17
1926;BME280;964;42.606;23.588;2023-11-19T09:32:52;94688.31;;;12.93;37.13
1926;BME280;964;42.606;23.588;2023-11-19T09:35:18;94685.13;;;12.84;37.15
1926;BME280;964;42.606;23.588;2023-11-19T09:37:45;94681.41;;;12.62;37.34
1926;BME280;964;42.606;23.588;2023-11-19T09:40:14;94671.22;;;12.68;37.03
1926;BME280;964;42.606;23.588;2023-11-19T09:42:43;94679.53;;;12.89;37.44
1926;BME280;964;42.606;23.588;2023-11-19T09:45:13;94659.59;;;13.06;36.66
1926;BME280;964;42.606;23.588;2023-11-19T09:47:42;94665.06;;;13.16;36.31
1926;BME280;964;42.606;23.588;2023-11-19T09:50:10;94666.13;;;14.19;35.15
1926;BME280;964;42.606;23.588;2023-11-19T09:52:41;94663.88;;;14.24;34.80
1926;BME280;964;42.606;23.588;2023-11-19T09:55:08;94657.34;;;14.18;34.43
1926;BME280;964;42.606;23.588;2023-11-19T09:57:38;94652.41;;;13.73;35.76
1926;BME280;964;42.606;23.588;2023-11-19T10:00:07;94647.03;;;14.13;35.67
1926;BME280;964;42.606;23.588;2023-11-19T10:02:36;94646.59;;;13.64;35.62
1926;BME280;964;42.606;23.588;2023-11-19T10:05:05;94657.16;;;13.57;36.21
1926;BME280;964;42.606;23.588;2023-11-19T10:07:33;94654.63;;;14.11;35.33
1926;BME280;964;42.606;23.588;2023-11-19T10:10:00;94649.47;;;13.48;35.18
1926;BME280;964;42.606;23.588;2023-11-19T10:12:27;94639.41;;;14.08;35.14
1926;BME280;964;42.606;23.588;2023-11-19T10:14:57;94639.22;;;14.89;34.53
1926;BME280;964;42.606;23.588;2023-11-19T10:17:27;94616.16;;;17.05;30.90
1926;BME280;964;42.606;23.588;2023-11-19T10:19:55;94625.53;;;15.01;32.62
1926;BME280;964;42.606;23.588;2023-11-19T10:22:22;94639.03;;;14.13;34.35
1926;BME280;964;42.606;23.588;2023-11-19T10:24:49;94645.69;;;14.34;34.10
1926;BME280;964;42.606;23.588;2023-11-19T10:27:17;94646.50;;;14.38;34.06
1926;BME280;964;42.606;23.588;2023-11-19T10:29:45;94657.66;;;13.33;34.78
1926;BME280;964;42.606;23.588;2023-11-19T10:32:14;94654.72;;;13.41;35.19
1926;BME280;964;42.606;23.588;2023-11-19T10:34:41;94640.84;;;13.99;34.56
1926;BME280;964;42.606;23.588;2023-11-19T10:37:08;94645.31;;;13.88;35.18
1926;BME280;964;42.606;23.588;2023-11-19T10:39:54;94638.59;;;14.04;34.12
1926;BME280;964;42.606;23.588;2023-11-19T10:42:21;94625.28;;;13.64;36.14
1926;BME280;964;42.606;23.588;2023-11-19T10:44:48;94622.03;;;13.81;36.00
1926;BME280;964;42.606;23.588;2023-11-19T10:47:18;94620.13;;;13.82;35.49
1926;BME280;964;42.606;23.588;2023-11-19T10:49:46;94625.28;;;13.64;35.69
1926;BME280;964;42.606;23.588;2023-11-19T10:52:17;94622.63;;;14.04;35.13
1926;BME280;964;42.606;23.588;2023-11-19T10:54:49;94619.22;;;13.67;35.07
1926;BME280;964;42.606;23.588;2023-11-19T10:57:20;94615.59;;;13.12;35.29
1926;BME280;964;42.606;23.588;2023-11-19T10:59:47;94620.69;;;14.49;34.60
1926;BME280;964;42.606;23.588;2023-11-19T11:02:21;94623.84;;;14.72;34.74
1926;BME280;964;42.606;23.588;2023-11-19T11:04:51;94627.78;;;14.31;35.10
1926;BME280;964;42.606;23.588;2023-11-19T11:07:21;94621.50;;;14.09;34.82
1926;BME280;964;42.606;23.588;2023-11-19T11:09:51;94618.28;;;13.49;35.52
1926;BME280;964;42.606;23.588;2023-11-19T11:12:21;94622.38;;;13.76;35.88
1926;BME280;964;42.606;23.588;2023-11-19T11:14:49;94622.91;;;13.96;35.60
1926;BME280;964;42.606;23.588;2023-11-19T11:17:18;94617.38;;;14.15;35.75
1926;BME280;964;42.606;23.588;2023-11-19T11:19:47;94615.44;;;13.68;34.77
1926;BME280;964;42.606;23.588;2023-11-19T11:22:16;94616.03;;;13.91;35.06
1926;BME280;964;42.606;23.588;2023-11-19T11:25:17;94604.97;;;13.89;35.36
1926;BME280;964;42.606;23.588;2023-11-19T11:28:05;94604.66;;;13.94;35.13
1926;BME280;964;42.606;23.588;2023-11-19T11:30:46;94601.44;;;14.22;34.86
1926;BME280;964;42.606;23.588;2023-11-19T11:33:34;94601.97;;;13.50;34.97
1926;BME280;964;42.606;23.588;2023-11-19T11:36:13;94612.22;;;14.40;35.02
1926;BME280;964;42.606;23.588;2023-11-19T11:38:48;94611.22;;;14.62;34.48
1926;BME280;964;42.606;23.588;2023-11-19T11:41:16;94611.25;;;14.14;34.82
1926;BME280;964;42.606;23.588;2023-11-19T11:43:45;94624.25;;;14.74;33.79
1926;BME280;964;42.606;23.588;2023-11-19T11:49:14;94592.91;;;15.47;33.08
1926;BME280;964;42.606;23.588;2023-11-19T11:52:00;94590.53;;;15.17;32.56
1926;BME280;964;42.606;23.588;2023-11-19T11:54:28;94589.75;;;15.09;33.03
1926;BME280;964;42.606;23.588;2023-11-19T11:57:03;94574.66;;;16.19;32.44
1926;BME280;964;42.606;23.588;2023-11-19T11:59:46;94564.19;;;17.72;29.76
1926;BME280;964;42.606;23.588;2023-11-19T12:02:15;94570.88;;;18.01;28.83
1926;BME280;964;42.606;23.588;2023-11-19T12:04:46;94576.78;;;18.27;27.87
1926;BME280;964;42.606;23.588;2023-11-19T12:07:16;94588.03;;;18.07;28.78
1926;BME280;964;42.606;23.588;2023-11-19T12:09:48;94601.41;;;16.23;31.20
1926;BME280;964;42.606;23.588;2023-11-19T12:12:22;94601.41;;;15.84;31.15
1926;BME280;964;42.606;23.588;2023-11-19T12:15:01;94598.22;;;15.43;32.66
1926;BME280;964;42.606;23.588;2023-11-19T12:17:49;94598.66;;;15.63;32.38
1926;BME280;964;42.606;23.588;2023-11-19T12:20:18;94588.75;;;15.60;32.56
1926;BME280;964;42.606;23.588;2023-11-19T12:22:47;94585.84;;;14.86;33.09
1926;BME280;964;42.606;23.588;2023-11-19T12:25:15;94570.06;;;15.60;32.15
1926;BME280;964;42.606;23.588;2023-11-19T12:27:44;94565.84;;;16.37;31.82
1926;BME280;964;42.606;23.588;2023-11-19T12:30:12;94553.34;;;17.90;28.92
1926;BME280;964;42.606;23.588;2023-11-19T12:32:40;94541.22;;;19.81;26.95
1926;BME280;964;42.606;23.588;2023-11-19T12:35:08;94534.56;;;20.13;26.75
1926;BME280;964;42.606;23.588;2023-11-19T12:37:42;94531.00;;;21.41;25.80
1926;BME280;964;42.606;23.588;2023-11-19T12:40:14;94536.19;;;20.53;25.91
1926;BME280;964;42.606;23.588;2023-11-19T12:42:41;94522.28;;;20.35;25.72
1926;BME280;964;42.606;23.588;2023-11-19T12:45:09;94520.25;;;19.16;26.86
1926;BME280;964;42.606;23.588;2023-11-19T12:47:38;94510.50;;;20.29;26.42
1926;BME280;964;42.606;23.588;2023-11-19T12:50:06;94512.09;;;20.66;25.51
1926;BME280;964;42.606;23.588;2023-11-19T12:52:33;94497.50;;;21.42;24.10
1926;BME280;964;42.606;23.588;2023-11-19T12:55:02;94492.59;;;21.53;24.56
1926;BME280;964;42.606;23.588;2023-11-19T12:57:36;94505.19;;;20.84;25.00
1926;BME280;964;42.606;23.588;2023-11-19T13:00:05;94509.19;;;19.90;26.18
1926;BME280;964;42.606;23.588;2023-11-19T13:02:48;94516.19;;;20.07;26.05
1926;BME280;964;42.606;23.588;2023-11-19T13:05:26;94526.16;;;20.11;26.50
1926;BME280;964;42.606;23.588;2023-11-19T13:08:00;94523.91;;;20.05;26.23
1926;BME280;964;42.606;23.588;2023-11-19T13:10:29;94509.88;;;20.18;26.09
1926;BME280;964;42.606;23.588;2023-11-19T13:13:01;94499.13;;;20.80;25.74
1926;BME280;964;42.606;23.588;2023-11-19T13:15:28;94507.31;;;19.87;26.45
1926;BME280;964;42.606;23.588;2023-11-19T13:17:55;94508.19;;;18.67;28.13
1926;BME280;964;42.606;23.588;2023-11-19T13:20:25;94512.25;;;17.52;29.44
1926;BME280;964;42.606;23.588;2023-11-19T13:22:56;94508.91;;;16.47;31.26
1926;BME280;964;42.606;23.588;2023-11-19T13:25:23;94514.72;;;15.99;32.00
1926;BME280;964;42.606;23.588;2023-11-19T13:27:52;94502.84;;;16.25;32.41
1926;BME280;964;42.606;23.588;2023-11-19T13:30:19;94498.94;;;16.54;31.90
1926;BME280;964;42.606;23.588;2023-11-19T13:32:47;94502.13;;;15.89;32.74